Time;durP1;ratioP1;P1;durP2;ratioP2;P2;SDS_P1;SDS_P2;PMS_P1;PMS_P2;Temp;Humidity;BMP_temperature;BMP_pressure;BME280_temperature;BME280_humidity;BME280_pressure;Samples;Min_cycle;Max_cycle;Signal;HPM_P1;HPM_P2
2024/01/02 00:01:32;;;;;;;;;;;;;;;6.08;100.00;100049.25;5010971;28;19917;-77
2024/01/02 00:03:57;;;;;;;;;;;;;;;6.13;100.00;100028.44;5007387;28;20378;-82
2024/01/02 00:06:22;;;;;;;;;;;;;;;6.12;100.00;100033.91;5021516;28;20450;-80
2024/01/02 00:08:47;;;;;;;;;;;;;;;5.99;100.00;100024.06;5007770;28;20445;-82
2024/01/02 00:11:13;;;;;;;;;;;;;;;6.05;100.00;100004.19;4995994;28;20033;-87
2024/01/02 00:13:38;;;;;;;;;;;;;;;6.00;100.00;99993.00;5006576;28;19924;-81
2024/01/02 00:16:04;;;;;;;;;;;;;;;6.03;100.00;99994.56;5011000;28;20347;-82
2024/01/02 00:18:29;;;;;;;;;;;;;;;6.03;100.00;99979.44;5011144;28;19928;-82
2024/01/02 00:20:54;;;;;;;;;;;;;;;6.02;100.00;99985.75;5006795;28;19921;-76
2024/01/02 00:23:19;;;;;;;;;;;;;;;6.03;100.00;99965.25;5003527;28;19971;-81
2024/01/02 00:25:44;;;;;;;;;;;;;;;6.08;100.00;99957.78;5005334;28;20298;-79
2024/01/02 00:28:10;;;;;;;;;;;;;;;6.07;100.00;99943.63;5004821;28;20354;-78
2024/01/02 00:30:36;;;;;;;;;;;;;;;6.03;100.00;99938.59;5002710;28;20390;-80
2024/01/02 00:33:04;;;;;;;;;;;;;;;6.06;100.00;99925.06;5003579;28;20131;-79
2024/01/02 00:35:29;;;;;;;;;;;;;;;6.10;100.00;99919.38;5019832;28;19921;-77
2024/01/02 00:37:55;;;;;;;;;;;;;;;6.18;100.00;99910.84;5004816;28;20031;-81
2024/01/02 00:40:20;;;;;;;;;;;;;;;6.18;100.00;99913.50;5009006;28;19993;-78
2024/01/02 00:42:45;;;;;;;;;;;;;;;6.33;100.00;99886.66;5010858;28;19931;-77
2024/01/02 00:45:10;;;;;;;;;;;;;;;6.22;100.00;99867.00;5008977;28;19927;-78
2024/01/02 00:47:35;;;;;;;;;;;;;;;6.26;100.00;99868.44;4992662;28;20358;-78
2024/01/02 00:50:01;;;;;;;;;;;;;;;6.37;100.00;99845.47;5021980;28;20555;-79
2024/01/02 00:52:26;;;;;;;;;;;;;;;6.32;100.00;99842.28;5025080;28;20693;-79
2024/01/02 00:54:52;;;;;;;;;;;;;;;6.44;100.00;99830.72;5007083;28;19936;-80
2024/01/02 00:57:17;;;;;;;;;;;;;;;6.20;100.00;99814.75;5005444;28;19967;-77
2024/01/02 00:59:42;;;;;;;;;;;;;;;6.18;100.00;99809.56;5013145;28;19921;-79
2024/01/02 01:02:08;;;;;;;;;;;;;;;6.33;100.00;99807.53;5008847;28;20379;-77
2024/01/02 01:04:33;;;;;;;;;;;;;;;6.37;100.00;99781.47;5011055;28;19952;-76
2024/01/02 01:06:58;;;;;;;;;;;;;;;6.29;100.00;99788.25;5006796;28;19921;-79
2024/01/02 01:09:23;;;;;;;;;;;;;;;6.47;100.00;99763.81;5005443;28;19921;-78
2024/01/02 01:11:48;;;;;;;;;;;;;;;6.35;100.00;99767.41;5007761;28;20348;-77
2024/01/02 01:14:14;;;;;;;;;;;;;;;6.38;100.00;99746.69;5007383;28;20043;-79
2024/01/02 01:16:39;;;;;;;;;;;;;;;6.38;100.00;99736.03;5022897;28;19975;-79
2024/01/02 01:19:04;;;;;;;;;;;;;;;6.42;100.00;99732.16;4988879;28;19921;-77
2024/01/02 01:21:29;;;;;;;;;;;;;;;6.25;100.00;99721.97;5022779;28;20616;-76
2024/01/02 01:23:55;;;;;;;;;;;;;;;6.36;100.00;99715.78;5006354;28;19948;-78
2024/01/02 01:26:20;;;;;;;;;;;;;;;6.42;100.00;99704.66;5010764;28;19921;-80
2024/01/02 01:28:45;;;;;;;;;;;;;;;6.15;100.00;99689.84;4991481;28;19957;-79
2024/01/02 01:31:10;;;;;;;;;;;;;;;6.22;100.00;99680.41;4990032;28;19925;-76
2024/01/02 01:33:35;;;;;;;;;;;;;;;6.30;100.00;99691.31;5021481;28;19972;-77
2024/01/02 01:36:01;;;;;;;;;;;;;;;6.32;100.00;99669.88;5028721;28;20891;-78
2024/01/02 01:38:26;;;;;;;;;;;;;;;6.24;100.00;99643.81;4991455;28;19979;-77
2024/01/02 01:40:51;;;;;;;;;;;;;;;6.19;100.00;99632.69;5029074;28;19924;-78
2024/01/02 01:43:17;;;;;;;;;;;;;;;6.34;100.00;99630.63;4990668;28;19999;-78
2024/01/02 01:45:42;;;;;;;;;;;;;;;6.31;100.00;99614.88;4993942;28;20024;-77
2024/01/02 01:48:08;;;;;;;;;;;;;;;6.32;100.00;99616.56;5007716;28;19928;-77
2024/01/02 01:50:34;;;;;;;;;;;;;;;6.28;100.00;99599.94;5009885;28;20020;-80
2024/01/02 01:52:59;;;;;;;;;;;;;;;6.43;100.00;99605.03;5011059;28;20006;-79
2024/01/02 01:55:24;;;;;;;;;;;;;;;6.40;100.00;99590.09;5012712;28;19929;-80
2024/01/02 01:57:49;;;;;;;;;;;;;;;6.29;100.00;99584.81;5028485;28;20014;-79
2024/01/02 02:00:14;;;;;;;;;;;;;;;6.38;100.00;99565.38;5009206;28;19929;-78
2024/01/02 02:02:40;;;;;;;;;;;;;;;6.20;100.00;99554.41;5009731;28;19932;-80
2024/01/02 02:05:05;;;;;;;;;;;;;;;6.32;100.00;99552.59;5023912;28;19945;-79
2024/01/02 02:07:30;;;;;;;;;;;;;;;6.33;100.00;99545.41;5011020;28;20008;-75
2024/01/02 02:09:56;;;;;;;;;;;;;;;6.24;100.00;99531.00;5012297;28;19924;-76
2024/01/02 02:12:21;;;;;;;;;;;;;;;6.35;100.00;99512.34;5009344;28;20180;-81
2024/01/02 02:14:46;;;;;;;;;;;;;;;6.35;100.00;99501.69;5010162;28;20328;-79
2024/01/02 02:17:21;;;;;;;;;;;;;;;6.37;100.00;99504.22;4996514;28;19925;-79
2024/01/02 02:19:47;;;;;;;;;;;;;;;6.30;100.00;99493.22;5008203;28;19921;-81
2024/01/02 02:22:13;;;;;;;;;;;;;;;6.40;100.00;99498.63;5010080;28;20378;-76
2024/01/02 02:24:38;;;;;;;;;;;;;;;6.38;100.00;99468.59;5003325;28;20465;-79
2024/01/02 02:27:03;;;;;;;;;;;;;;;6.26;100.00;99468.59;4992536;28;19967;-77
2024/01/02 02:29:28;;;;;;;;;;;;;;;6.24;100.00;99462.53;5007081;28;19927;-79
2024/01/02 02:31:54;;;;;;;;;;;;;;;6.36;100.00;99436.69;5008699;28;20060;-78
2024/01/02 02:34:19;;;;;;;;;;;;;;;6.36;100.00;99444.69;4990636;28;19971;-79
2024/01/02 02:36:44;;;;;;;;;;;;;;;6.28;100.00;99447.16;4994152;28;20011;-79
2024/01/02 02:39:09;;;;;;;;;;;;;;;6.39;100.00;99431.13;5004453;28;20338;-80
2024/01/02 02:41:35;;;;;;;;;;;;;;;6.41;100.00;99425.69;5006345;28;19929;-77
2024/01/02 02:44:00;;;;;;;;;;;;;;;6.42;100.00;99412.19;5000423;28;20303;-80
2024/01/02 02:46:26;;;;;;;;;;;;;;;6.27;100.00;99401.00;4992445;28;19921;-80
2024/01/02 02:48:51;;;;;;;;;;;;;;;6.34;100.00;99387.16;4992246;28;19925;-79
2024/01/02 02:51:16;;;;;;;;;;;;;;;6.34;100.00;99381.84;5006241;28;19929;-80
2024/01/02 02:53:41;;;;;;;;;;;;;;;6.26;100.00;99372.66;5007799;28;20482;-80
2024/01/02 02:56:06;;;;;;;;;;;;;;;6.28;100.00;99346.72;4992459;28;20275;-80
2024/01/02 02:58:32;;;;;;;;;;;;;;;6.25;100.00;99328.31;5007169;28;20443;-82
2024/01/02 03:00:57;;;;;;;;;;;;;;;6.30;100.00;99319.94;5005644;28;19925;-78
2024/01/02 03:03:22;;;;;;;;;;;;;;;6.24;100.00;99294.63;4990570;28;19932;-80
2024/01/02 03:05:48;;;;;;;;;;;;;;;6.47;100.00;99302.53;5010631;28;20402;-80
2024/01/02 03:08:13;;;;;;;;;;;;;;;6.30;100.00;99291.44;5022776;28;20406;-79
2024/01/02 03:10:38;;;;;;;;;;;;;;;6.41;100.00;99277.19;4988969;28;19930;-80
2024/01/02 03:13:04;;;;;;;;;;;;;;;6.42;100.00;99265.56;5024311;28;19921;-78
2024/01/02 03:15:29;;;;;;;;;;;;;;;6.42;100.00;99262.06;4990787;28;19925;-80
2024/01/02 03:17:54;;;;;;;;;;;;;;;6.44;100.00;99260.94;5020434;28;19925;-79
2024/01/02 03:20:19;;;;;;;;;;;;;;;6.40;100.00;99261.34;4988772;28;19925;-79
2024/01/02 03:22:44;;;;;;;;;;;;;;;6.40;100.00;99234.69;4984554;28;20105;-81
2024/01/02 03:25:10;;;;;;;;;;;;;;;6.49;100.00;99231.22;5020981;28;20023;-80
2024/01/02 03:27:35;;;;;;;;;;;;;;;6.44;100.00;99223.63;5003563;28;19921;-80
2024/01/02 03:30:00;;;;;;;;;;;;;;;6.38;100.00;99208.16;5001075;28;20067;-79
2024/01/02 03:32:25;;;;;;;;;;;;;;;6.44;100.00;99188.13;5006285;28;20370;-78
2024/01/02 03:34:51;;;;;;;;;;;;;;;6.41;100.00;99173.22;5024410;28;20382;-78
2024/01/02 03:37:16;;;;;;;;;;;;;;;6.38;100.00;99149.50;5028004;28;20386;-79
2024/01/02 03:39:41;;;;;;;;;;;;;;;6.58;100.00;99138.94;4992773;28;19928;-79
2024/01/02 03:42:07;;;;;;;;;;;;;;;6.45;100.00;99120.50;5022754;28;19932;-80
2024/01/02 03:44:32;;;;;;;;;;;;;;;6.64;100.00;99124.19;5004155;28;19971;-80
2024/01/02 03:46:57;;;;;;;;;;;;;;;6.64;100.00;99130.38;5025848;28;20012;-81
2024/01/02 03:49:23;;;;;;;;;;;;;;;6.59;100.00;99121.94;5007411;28;19925;-79
2024/01/02 03:51:48;;;;;;;;;;;;;;;6.59;100.00;99111.28;5003541;28;20034;-79
2024/01/02 03:54:13;;;;;;;;;;;;;;;6.57;100.00;99105.25;5004083;28;20277;-80
2024/01/02 03:56:38;;;;;;;;;;;;;;;6.54;100.00;99086.84;5012538;28;20421;-79
2024/01/02 03:59:04;;;;;;;;;;;;;;;6.50;100.00;99082.75;4992819;28;20422;-80
2024/01/02 04:01:29;;;;;;;;;;;;;;;6.62;100.00;99091.50;5007105;28;20288;-81
2024/01/02 04:03:54;;;;;;;;;;;;;;;6.60;100.00;99075.63;5010578;28;20431;-80
2024/01/02 04:06:19;;;;;;;;;;;;;;;6.61;100.00;99080.00;4996085;28;20035;-80
2024/01/02 04:08:45;;;;;;;;;;;;;;;6.72;100.00;99073.69;4992647;28;20447;-79
2024/01/02 04:11:13;;;;;;;;;;;;;;;6.76;100.00;99072.41;5019530;28;19932;-79
2024/01/02 04:13:38;;;;;;;;;;;;;;;6.65;100.00;99081.38;5006983;28;20073;-78
2024/01/02 04:16:04;;;;;;;;;;;;;;;6.76;100.00;99051.06;5013432;28;19956;-83
2024/01/02 04:18:29;;;;;;;;;;;;;;;6.79;100.00;99034.78;5014460;28;20047;-80
2024/01/02 04:20:55;;;;;;;;;;;;;;;6.81;100.00;99038.16;5011759;28;20395;-78
2024/01/02 04:23:20;;;;;;;;;;;;;;;6.69;100.00;99045.47;5009785;28;20015;-81
2024/01/02 04:25:45;;;;;;;;;;;;;;;6.80;100.00;99024.97;5008829;28;19925;-79
2024/01/02 04:28:11;;;;;;;;;;;;;;;6.85;100.00;99031.56;4992408;28;19925;-80
2024/01/02 04:30:36;;;;;;;;;;;;;;;7.03;100.00;99018.38;5005935;28;20456;-78
2024/01/02 04:33:01;;;;;;;;;;;;;;;6.97;100.00;99020.78;5024391;28;19975;-80
2024/01/02 04:35:26;;;;;;;;;;;;;;;7.04;100.00;99011.19;5024607;28;19935;-82
2024/01/02 04:37:52;;;;;;;;;;;;;;;7.05;100.00;99010.22;4992108;28;20588;-78
2024/01/02 04:40:17;;;;;;;;;;;;;;;7.17;100.00;99018.91;5007677;28;20493;-82
2024/01/02 04:42:42;;;;;;;;;;;;;;;7.15;100.00;98995.03;5004206;28;20467;-81
2024/01/02 04:45:08;;;;;;;;;;;;;;;7.29;100.00;98991.09;5008248;28;19960;-81
2024/01/02 04:47:33;;;;;;;;;;;;;;;7.30;100.00;98992.78;5010196;28;19963;-78
2024/01/02 04:49:59;;;;;;;;;;;;;;;7.31;100.00;98981.09;5010156;28;19927;-79
2024/01/02 04:52:25;;;;;;;;;;;;;;;7.28;100.00;98957.38;5007256;28;19932;-77
2024/01/02 04:54:51;;;;;;;;;;;;;;;7.46;100.00;98952.13;5015790;28;19925;-78
2024/01/02 04:57:16;;;;;;;;;;;;;;;7.44;100.00;98954.09;5011673;28;21631;-78
2024/01/02 04:59:41;;;;;;;;;;;;;;;7.37;100.00;98950.31;4997181;28;20003;-76
2024/01/02 05:02:06;;;;;;;;;;;;;;;7.43;100.00;98944.41;4992068;28;19921;-77
2024/01/02 05:04:33;;;;;;;;;;;;;;;7.46;100.00;98932.56;5010099;28;20034;-76
2024/01/02 05:06:58;;;;;;;;;;;;;;;7.62;100.00;98926.59;5004037;28;19925;-78
2024/01/02 05:09:24;;;;;;;;;;;;;;;7.63;100.00;98942.50;5023875;28;19932;-76
2024/01/02 05:11:49;;;;;;;;;;;;;;;7.62;100.00;98931.94;5003501;28;19929;-79
2024/01/02 05:14:14;;;;;;;;;;;;;;;7.60;100.00;98928.56;5007205;28;19921;-78
2024/01/02 05:16:40;;;;;;;;;;;;;;;7.68;100.00;98941.22;5002835;28;20348;-80
2024/01/02 05:19:05;;;;;;;;;;;;;;;7.81;100.00;98920.31;5008402;28;19927;-80
2024/01/02 05:21:30;;;;;;;;;;;;;;;7.91;100.00;98872.16;5007187;28;20658;-78
2024/01/02 05:23:55;;;;;;;;;;;;;;;7.91;100.00;98874.84;5005624;28;19921;-79
2024/01/02 05:26:21;;;;;;;;;;;;;;;7.94;100.00;98885.22;5008846;28;19925;-76
2024/01/02 05:28:46;;;;;;;;;;;;;;;8.00;100.00;98881.97;5009503;28;20531;-79
2024/01/02 05:31:11;;;;;;;;;;;;;;;7.99;100.00;98872.28;5010261;28;20028;-77
2024/01/02 05:33:36;;;;;;;;;;;;;;;8.07;100.00;98853.66;5025612;28;19927;-78
2024/01/02 05:36:01;;;;;;;;;;;;;;;8.08;100.00;98847.28;5008033;28;20015;-77
2024/01/02 05:38:27;;;;;;;;;;;;;;;8.15;100.00;98844.88;5011643;28;19944;-78
2024/01/02 05:40:52;;;;;;;;;;;;;;;8.21;100.00;98822.84;5029518;28;19944;-76
2024/01/02 05:43:17;;;;;;;;;;;;;;;8.33;100.00;98834.16;5013050;28;19939;-77
2024/01/02 05:45:42;;;;;;;;;;;;;;;8.30;100.00;98823.78;5008992;28;20381;-81
2024/01/02 05:48:09;;;;;;;;;;;;;;;8.43;100.00;98834.06;5011696;28;20382;-79
2024/01/02 05:50:34;;;;;;;;;;;;;;;8.52;100.00;98835.81;5013062;28;19963;-79
2024/01/02 05:52:59;;;;;;;;;;;;;;;8.50;100.00;98818.28;5014542;28;19921;-79
2024/01/02 05:55:25;;;;;;;;;;;;;;;8.65;100.00;98807.84;5011524;28;20211;-77
2024/01/02 05:57:50;;;;;;;;;;;;;;;8.59;100.00;98821.84;5002893;28;19921;-78
2024/01/02 06:00:15;;;;;;;;;;;;;;;8.64;100.00;98822.22;5006161;28;19960;-78
2024/01/02 06:02:40;;;;;;;;;;;;;;;8.70;100.00;98837.66;5008986;28;20387;-80
2024/01/02 06:05:06;;;;;;;;;;;;;;;8.73;100.00;98836.47;4995059;28;20620;-76
2024/01/02 06:07:31;;;;;;;;;;;;;;;8.72;100.00;98824.09;5028190;28;21102;-78
2024/01/02 06:09:57;;;;;;;;;;;;;;;8.81;100.00;98810.59;5003790;28;19922;-77
2024/01/02 06:12:22;;;;;;;;;;;;;;;8.89;100.00;98820.50;5008927;28;19924;-79
2024/01/02 06:14:47;;;;;;;;;;;;;;;8.93;100.00;98821.88;5007091;28;19925;-77
2024/01/02 06:17:12;;;;;;;;;;;;;;;8.99;100.00;98831.13;5009229;28;19917;-76
2024/01/02 06:19:37;;;;;;;;;;;;;;;9.05;100.00;98822.44;5006597;28;19917;-77
2024/01/02 06:22:03;;;;;;;;;;;;;;;9.08;100.00;98821.31;5024600;28;19921;-78
2024/01/02 06:24:28;;;;;;;;;;;;;;;9.12;100.00;98822.66;5007519;28;19963;-77
2024/01/02 06:26:53;;;;;;;;;;;;;;;9.22;100.00;98803.81;5022031;28;20433;-81
2024/01/02 06:29:19;;;;;;;;;;;;;;;9.23;100.00;98826.91;5004388;28;19943;-77
2024/01/02 06:31:44;;;;;;;;;;;;;;;9.32;100.00;98833.13;5006450;28;20366;-78
2024/01/02 06:34:09;;;;;;;;;;;;;;;9.37;100.00;98833.50;5005392;28;19921;-78
2024/01/02 06:36:35;;;;;;;;;;;;;;;9.35;100.00;98841.66;5025885;28;19921;-78
2024/01/02 06:39:00;;;;;;;;;;;;;;;9.34;100.00;98845.34;5003466;28;19927;-77
2024/01/02 06:41:25;;;;;;;;;;;;;;;9.36;100.00;98843.34;5028308;28;19943;-77
2024/01/02 06:43:50;;;;;;;;;;;;;;;9.38;100.00;98844.03;5002975;28;19933;-77
2024/01/02 06:46:15;;;;;;;;;;;;;;;9.41;100.00;98838.34;5012769;28;20027;-77
2024/01/02 06:48:42;;;;;;;;;;;;;;;9.40;100.00;98851.94;5008248;28;20011;-77
2024/01/02 06:51:07;;;;;;;;;;;;;;;9.43;100.00;98851.56;5023934;28;19964;-77
2024/01/02 06:53:32;;;;;;;;;;;;;;;9.47;100.00;98857.47;5024972;28;19969;-78
2024/01/02 06:55:57;;;;;;;;;;;;;;;9.55;100.00;98871.72;5011362;28;20007;-79
2024/01/02 06:58:22;;;;;;;;;;;;;;;9.56;100.00;98864.50;5026225;28;19962;-79
2024/01/02 07:00:48;;;;;;;;;;;;;;;9.56;100.00;98870.72;5022014;28;19959;-78
2024/01/02 07:03:13;;;;;;;;;;;;;;;9.62;100.00;98884.50;5007973;28;20253;-78
2024/01/02 07:05:39;;;;;;;;;;;;;;;9.63;100.00;98873.59;4997316;28;20452;-78
2024/01/02 07:08:04;;;;;;;;;;;;;;;9.68;100.00;98881.13;4993307;28;19921;-84
2024/01/02 07:10:30;;;;;;;;;;;;;;;9.68;100.00;98883.81;5019639;28;19933;-77
2024/01/02 07:12:55;;;;;;;;;;;;;;;9.76;100.00;98883.84;5009814;28;19921;-78
2024/01/02 07:15:20;;;;;;;;;;;;;;;9.70;100.00;98892.53;4997097;28;19917;-76
2024/01/02 07:17:45;;;;;;;;;;;;;;;9.75;100.00;98908.97;5009093;28;20303;-78
2024/01/02 07:20:12;;;;;;;;;;;;;;;9.81;100.00;98907.47;5012364;28;20362;-79
2024/01/02 07:22:37;;;;;;;;;;;;;;;9.78;100.00;98919.38;5011377;28;20348;-77
2024/01/02 07:25:02;;;;;;;;;;;;;;;9.88;100.00;98925.47;5007496;28;20427;-78
2024/01/02 07:27:27;;;;;;;;;;;;;;;9.94;100.00;98934.69;5010245;28;19982;-81
2024/01/02 07:29:53;;;;;;;;;;;;;;;9.91;100.00;98937.69;5009626;28;19990;-75
2024/01/02 07:32:19;;;;;;;;;;;;;;;9.92;100.00;98955.44;5009452;28;20022;-78
2024/01/02 07:34:44;;;;;;;;;;;;;;;9.94;100.00;98974.91;5011552;28;20438;-78
2024/01/02 07:37:11;;;;;;;;;;;;;;;9.96;100.00;98977.41;5008537;28;19917;-78
2024/01/02 07:39:36;;;;;;;;;;;;;;;9.94;100.00;98984.75;5008440;28;19959;-78
2024/01/02 07:42:01;;;;;;;;;;;;;;;9.93;100.00;98999.19;5018273;28;19940;-77
2024/01/02 07:44:26;;;;;;;;;;;;;;;9.92;100.00;99001.03;5006324;28;19921;-77
2024/01/02 07:46:52;;;;;;;;;;;;;;;9.90;100.00;99022.63;4997142;28;20007;-77
2024/01/02 07:49:17;;;;;;;;;;;;;;;9.89;100.00;99031.69;5014922;28;19921;-76
2024/01/02 07:51:43;;;;;;;;;;;;;;;9.93;100.00;99037.56;5009390;28;19925;-77
2024/01/02 07:54:08;;;;;;;;;;;;;;;9.96;100.00;99055.16;5013283;28;19921;-78
2024/01/02 07:56:33;;;;;;;;;;;;;;;9.99;100.00;99058.38;5009998;28;19925;-77
2024/01/02 07:58:58;;;;;;;;;;;;;;;10.00;100.00;99069.91;4999229;28;19932;-76
2024/01/02 08:01:23;;;;;;;;;;;;;;;10.04;100.00;99065.94;5014142;28;19928;-78
2024/01/02 08:03:49;;;;;;;;;;;;;;;10.04;100.00;99076.66;5009263;28;19971;-78
2024/01/02 08:06:14;;;;;;;;;;;;;;;10.08;100.00;99087.88;5020046;28;20007;-79
2024/01/02 08:08:39;;;;;;;;;;;;;;;10.10;100.00;99096.63;5026462;28;20184;-78
2024/01/02 08:11:04;;;;;;;;;;;;;;;10.04;100.00;99096.28;5014449;28;20012;-78
2024/01/02 08:13:30;;;;;;;;;;;;;;;10.08;100.00;99094.09;5023646;28;19924;-78
2024/01/02 08:15:55;;;;;;;;;;;;;;;10.10;100.00;99091.25;5006702;28;19921;-79
2024/01/02 08:18:20;;;;;;;;;;;;;;;10.14;100.00;99096.16;5005282;28;19921;-78
2024/01/02 08:20:45;;;;;;;;;;;;;;;10.16;100.00;99098.66;5011459;28;19917;-78
2024/01/02 08:23:11;;;;;;;;;;;;;;;10.14;100.00;99106.03;5012040;28;19922;-78
2024/01/02 08:25:36;;;;;;;;;;;;;;;10.12;100.00;99105.34;5013881;28;19952;-77
2024/01/02 08:28:02;;;;;;;;;;;;;;;10.14;100.00;99106.03;5006564;28;19921;-79
2024/01/02 08:30:27;;;;;;;;;;;;;;;10.12;100.00;99106.19;5005794;28;19963;-78
2024/01/02 08:32:52;;;;;;;;;;;;;;;10.12;100.00;99119.59;5010641;28;20261;-79
2024/01/02 08:35:17;;;;;;;;;;;;;;;10.18;100.00;99116.28;4987515;28;20421;-77
2024/01/02 08:37:43;;;;;;;;;;;;;;;10.20;100.00;99116.13;5008979;28;20426;-79
2024/01/02 08:40:09;;;;;;;;;;;;;;;10.24;100.00;99120.19;5010149;28;20169;-78
2024/01/02 08:42:35;;;;;;;;;;;;;;;10.18;100.00;99123.47;5007184;28;19944;-78
2024/01/02 08:45:00;;;;;;;;;;;;;;;10.17;100.00;99127.16;5010467;28;20252;-80
2024/01/02 08:47:25;;;;;;;;;;;;;;;10.18;100.00;99118.13;5025868;28;20292;-77
2024/01/02 08:49:50;;;;;;;;;;;;;;;10.23;100.00;99125.69;5010220;28;19920;-78
2024/01/02 08:52:16;;;;;;;;;;;;;;;10.28;100.00;99123.38;5026958;28;20577;-77
2024/01/02 08:54:41;;;;;;;;;;;;;;;10.25;100.00;99115.63;5010867;28;19933;-79
2024/01/02 08:57:06;;;;;;;;;;;;;;;10.36;100.00;99123.41;5015826;28;19921;-79
2024/01/02 08:59:31;;;;;;;;;;;;;;;10.34;100.00;99117.38;5025612;28;19925;-80
2024/01/02 09:01:58;;;;;;;;;;;;;;;10.38;100.00;99117.88;4995201;28;20069;-81
2024/01/02 09:04:24;;;;;;;;;;;;;;;10.22;100.00;99098.03;5010532;28;20350;-78
2024/01/02 09:06:49;;;;;;;;;;;;;;;10.35;100.00;99121.72;5013242;28;19929;-78
2024/01/02 09:09:15;;;;;;;;;;;;;;;10.30;100.00;99116.84;5005451;28;20226;-78
2024/01/02 09:11:41;;;;;;;;;;;;;;;10.43;100.00;99124.50;5013197;28;20205;-80
2024/01/02 09:14:06;;;;;;;;;;;;;;;10.48;100.00;99126.69;5024937;28;19952;-79
2024/01/02 09:16:32;;;;;;;;;;;;;;;10.46;100.00;99129.50;5012449;28;20163;-79
2024/01/02 09:18:57;;;;;;;;;;;;;;;10.44;100.00;99126.19;5003939;28;20267;-79
2024/01/02 09:21:22;;;;;;;;;;;;;;;10.43;100.00;99121.81;5018474;28;20338;-79
2024/01/02 09:23:47;;;;;;;;;;;;;;;10.42;100.00;99128.19;5003428;28;20236;-78
2024/01/02 09:26:13;;;;;;;;;;;;;;;10.42;100.00;99125.50;5006619;28;19928;-80
2024/01/02 09:28:38;;;;;;;;;;;;;;;10.54;100.00;99131.41;5006344;28;19960;-78
2024/01/02 09:31:04;;;;;;;;;;;;;;;10.57;100.00;99133.78;5003858;28;19926;-78
2024/01/02 09:33:29;;;;;;;;;;;;;;;10.74;100.00;99136.50;5006140;28;19921;-81
2024/01/02 09:35:54;;;;;;;;;;;;;;;10.65;100.00;99146.38;5011070;28;19925;-79
2024/01/02 09:38:19;;;;;;;;;;;;;;;10.68;100.00;99140.69;5021036;28;20391;-79
2024/01/02 09:40:44;;;;;;;;;;;;;;;10.75;100.00;99149.75;4992961;28;20399;-78
2024/01/02 09:43:16;;;;;;;;;;;;;;;10.79;100.00;99144.94;5007491;28;20212;-79
2024/01/02 09:45:55;;;;;;;;;;;;;;;10.70;100.00;99152.13;5008422;28;20248;-78
2024/01/02 09:48:58;;;;;;;;;;;;;;;10.75;100.00;99155.13;5004351;28;19921;-80
2024/01/02 09:51:30;;;;;;;;;;;;;;;10.72;100.00;99151.94;4992891;28;19926;-79
2024/01/02 09:54:02;;;;;;;;;;;;;;;10.73;100.00;99162.50;4986552;28;19932;-78
2024/01/02 09:56:46;;;;;;;;;;;;;;;10.82;100.00;99165.22;5000003;28;19925;-80
2024/01/02 09:59:24;;;;;;;;;;;;;;;10.78;100.00;99164.72;5008560;28;19936;-77
2024/01/02 10:01:56;;;;;;;;;;;;;;;10.75;100.00;99160.50;5007498;28;19942;-79
2024/01/02 10:04:41;;;;;;;;;;;;;;;10.75;100.00;99173.91;5008847;28;19924;-81
2024/01/02 10:07:18;;;;;;;;;;;;;;;10.71;100.00;99175.28;5006762;28;19928;-80
2024/01/02 10:09:46;;;;;;;;;;;;;;;10.72;100.00;99174.28;5009429;28;19953;-80
2024/01/02 10:12:27;;;;;;;;;;;;;;;10.73;100.00;99173.25;5010768;28;19968;-79
2024/01/02 10:15:07;;;;;;;;;;;;;;;10.71;100.00;99161.84;4990626;28;19922;-80
2024/01/02 10:17:38;;;;;;;;;;;;;;;10.66;100.00;99172.22;5012063;28;19958;-78
2024/01/02 10:20:12;;;;;;;;;;;;;;;10.66;100.00;99164.16;5012404;28;19917;-79
2024/01/02 10:22:52;;;;;;;;;;;;;;;10.69;100.00;99158.50;5003044;28;19967;-82
2024/01/02 10:25:18;;;;;;;;;;;;;;;10.67;100.00;99133.66;5008789;28;19921;-81
2024/01/02 10:27:49;;;;;;;;;;;;;;;10.61;100.00;99136.97;4986907;28;20301;-79
2024/01/02 10:30:17;;;;;;;;;;;;;;;10.52;100.00;99130.72;5007398;28;19925;-79
2024/01/02 10:32:50;;;;;;;;;;;;;;;10.59;100.00;99115.69;5009575;28;19975;-79
2024/01/02 10:35:24;;;;;;;;;;;;;;;10.55;100.00;99113.47;5007044;28;19929;-78
2024/01/02 10:38:09;;;;;;;;;;;;;;;10.52;100.00;99095.84;4988337;28;20489;-79
2024/01/02 10:40:36;;;;;;;;;;;;;;;10.50;100.00;99092.47;5004666;28;19925;-80
2024/01/02 10:43:07;;;;;;;;;;;;;;;10.53;100.00;99097.53;5007630;28;19921;-79
2024/01/02 10:45:39;;;;;;;;;;;;;;;10.56;100.00;99088.31;5005698;28;19936;-79
2024/01/02 10:48:11;;;;;;;;;;;;;;;10.43;100.00;99062.78;5005376;28;20092;-80
2024/01/02 10:50:47;;;;;;;;;;;;;;;10.55;100.00;99075.88;5011343;28;19932;-80
2024/01/02 10:53:32;;;;;;;;;;;;;;;10.62;100.00;99085.81;5026509;28;19921;-79
2024/01/02 10:56:13;;;;;;;;;;;;;;;10.90;100.00;99084.72;5007494;28;20009;-80
2024/01/02 10:59:06;;;;;;;;;;;;;;;10.80;100.00;99056.16;5002160;28;21338;-85
2024/01/02 11:01:33;;;;;;;;;;;;;;;10.65;100.00;99071.22;4994619;28;19993;-79
2024/01/02 11:04:01;;;;;;;;;;;;;;;10.91;100.00;99067.59;5002501;28;20156;-82
2024/01/02 11:06:34;;;;;;;;;;;;;;;10.80;100.00;99077.63;4989938;28;19928;-81
2024/01/02 11:09:06;;;;;;;;;;;;;;;10.89;100.00;99093.78;5004815;28;19921;-76
2024/01/02 11:11:32;;;;;;;;;;;;;;;10.76;100.00;99097.75;5010585;28;20303;-80
2024/01/02 11:13:57;;;;;;;;;;;;;;;10.74;100.00;99086.34;5024682;28;19928;-78
2024/01/02 11:16:23;;;;;;;;;;;;;;;10.83;100.00;99105.16;5006062;28;19996;-81
2024/01/02 11:18:52;;;;;;;;;;;;;;;10.85;100.00;99101.31;5005353;28;19937;-80
2024/01/02 11:21:38;;;;;;;;;;;;;;;10.71;100.00;99080.47;5004439;28;19923;-80
2024/01/02 11:24:05;;;;;;;;;;;;;;;10.77;100.00;99091.38;5024497;28;20392;-81
2024/01/02 11:26:31;;;;;;;;;;;;;;;10.77;100.00;99098.63;5023558;28;19964;-81
2024/01/02 11:29:03;;;;;;;;;;;;;;;10.80;100.00;99083.00;5012466;28;19964;-80
2024/01/02 11:31:29;;;;;;;;;;;;;;;10.64;100.00;99078.44;5011765;28;19925;-81
2024/01/02 11:34:00;;;;;;;;;;;;;;;10.64;100.00;99069.56;5024536;28;19967;-81
2024/01/02 11:36:26;;;;;;;;;;;;;;;10.57;100.00;99058.63;5003244;28;19928;-80
2024/01/02 11:39:08;;;;;;;;;;;;;;;10.45;100.00;99055.41;5007788;28;19921;-84
2024/01/02 11:41:53;;;;;;;;;;;;;;;10.53;100.00;99073.38;5006146;28;19922;-81
2024/01/02 11:44:23;;;;;;;;;;;;;;;10.57;100.00;99049.72;5004511;28;19926;-83
2024/01/02 11:46:48;;;;;;;;;;;;;;;10.44;100.00;99050.19;4985142;28;19936;-80
2024/01/02 11:49:17;;;;;;;;;;;;;;;10.68;100.00;99027.13;4986740;28;19921;-81
2024/01/02 11:51:44;;;;;;;;;;;;;;;10.57;100.00;99041.69;5008177;28;19925;-81
2024/01/02 11:54:39;;;;;;;;;;;;;;;10.27;100.00;99036.72;5003098;28;19932;-81
2024/01/02 11:57:04;;;;;;;;;;;;;;;10.19;100.00;99023.25;4990350;28;19928;-79
2024/01/02 12:00:02;;;;;;;;;;;;;;;10.20;100.00;99030.31;5002925;28;19913;-79
2024/01/02 12:02:45;;;;;;;;;;;;;;;10.21;100.00;99031.97;4990306;28;20721;-79
2024/01/02 12:05:20;;;;;;;;;;;;;;;10.12;100.00;99033.78;5004127;28;20027;-81
2024/01/02 12:07:46;;;;;;;;;;;;;;;10.09;100.00;99027.91;4984429;28;19987;-78
2024/01/02 12:10:12;;;;;;;;;;;;;;;9.95;100.00;99032.03;5004499;28;19967;-77
2024/01/02 12:12:40;;;;;;;;;;;;;;;9.94;100.00;99015.09;5001428;28;20335;-76
2024/01/02 12:15:10;;;;;;;;;;;;;;;9.97;100.00;98995.16;5001470;28;19924;-77
2024/01/02 12:17:56;;;;;;;;;;;;;;;9.92;100.00;98992.16;4987539;28;20341;-77
2024/01/02 12:20:21;;;;;;;;;;;;;;;9.89;100.00;98972.72;5013074;28;19936;-76
2024/01/02 12:22:46;;;;;;;;;;;;;;;9.80;100.00;98952.22;5004987;28;19924;-74
2024/01/02 12:25:11;;;;;;;;;;;;;;;9.70;100.00;98949.66;4992732;28;19921;-74
2024/01/02 12:27:37;;;;;;;;;;;;;;;9.75;100.00;98944.66;5001271;28;19964;-76
2024/01/02 12:30:04;;;;;;;;;;;;;;;9.65;100.00;98945.78;5022627;28;19992;-76
2024/01/02 12:32:48;;;;;;;;;;;;;;;9.67;100.00;98930.38;5018574;28;20331;-73
2024/01/02 12:35:34;;;;;;;;;;;;;;;9.57;100.00;98923.31;5004063;28;19970;-73
2024/01/02 12:38:03;;;;;;;;;;;;;;;9.60;100.00;98909.59;5004462;28;19921;-73
2024/01/02 12:40:29;;;;;;;;;;;;;;;9.54;100.00;98906.69;5012919;28;19944;-74
2024/01/02 12:42:54;;;;;;;;;;;;;;;9.43;100.00;98886.41;4992397;28;20347;-76